Time;durP1;ratioP1;P1;durP2;ratioP2;P2;SDS_P1;SDS_P2;PMS_P1;PMS_P2;Temp;Humidity;BMP_temperature;BMP_pressure;BME280_temperature;BME280_humidity;BME280_pressure;Samples;Min_cycle;Max_cycle;Signal;HPM_P1;HPM_P2
2023/01/03 00:00:29;;;;;;;;;;;;;;;13.63;76.63;102204.06;1056539;28;737;-65
2023/01/03 00:01:20;;;;;;;;;;;;;;;13.62;76.75;102210.38;1057136;28;712;-66
2023/01/03 00:02:10;;;;;;;;;;;;;;;13.62;77.11;102207.72;1056303;28;693;-66
2023/01/03 00:03:01;;;;;;;;;;;;;;;13.61;76.80;102208.69;1056496;28;618;-66
2023/01/03 00:03:51;;;;;;;;;;;;;;;13.59;76.64;102214.13;1056705;28;690;-66
2023/01/03 00:04:41;;;;;;;;;;;;;;;13.60;76.78;102206.97;1052238;28;631;-66
2023/01/03 00:05:32;;;;;;;;;;;;;;;13.61;76.03;102206.88;1052983;28;744;-66
2023/01/03 00:06:22;;;;;;;;;;;;;;;13.58;76.66;102203.50;1056602;28;1890;-66
2023/01/03 00:07:13;;;;;;;;;;;;;;;13.60;76.74;102204.28;1059596;27;1146;-66
2023/01/03 00:08:03;;;;;;;;;;;;;;;13.60;76.36;102205.16;1057384;28;704;-66
2023/01/03 00:08:54;;;;;;;;;;;;;;;13.57;76.78;102208.00;1056243;28;1154;-66
2023/01/03 00:09:44;;;;;;;;;;;;;;;13.56;76.10;102200.91;1056479;28;1202;-66
2023/01/03 00:10:34;;;;;;;;;;;;;;;13.58;76.82;102203.50;1057581;28;744;-66
2023/01/03 00:12:34;;;;;;;;;;;;;;;13.52;76.91;102194.84;1053010;28;649;-66
2023/01/03 00:13:24;;;;;;;;;;;;;;;13.52;76.42;102200.19;1052183;28;1247;-66
2023/01/03 00:14:15;;;;;;;;;;;;;;;13.53;76.93;102201.94;1049524;28;907;-66
2023/01/03 00:15:05;;;;;;;;;;;;;;;13.54;76.36;102203.66;1050669;28;1173;-66
2023/01/03 00:15:56;;;;;;;;;;;;;;;13.57;76.84;102196.41;1056886;28;615;-66
2023/01/03 00:16:47;;;;;;;;;;;;;;;13.57;77.05;102207.13;1056349;28;1209;-66
2023/01/03 00:17:37;;;;;;;;;;;;;;;13.57;76.80;102205.31;1055681;28;863;-66
2023/01/03 00:18:28;;;;;;;;;;;;;;;13.54;76.42;102197.44;1056235;28;972;-66
2023/01/03 00:19:18;;;;;;;;;;;;;;;13.55;76.31;102204.53;1056118;28;664;-66
2023/01/03 00:20:09;;;;;;;;;;;;;;;13.55;76.79;102205.41;1053193;28;1281;-66
2023/01/03 00:20:59;;;;;;;;;;;;;;;13.53;76.59;102203.75;1054387;28;1188;-66
2023/01/03 00:21:50;;;;;;;;;;;;;;;13.53;76.20;102201.94;1056252;28;769;-66
2023/01/03 00:22:40;;;;;;;;;;;;;;;13.55;76.42;102208.06;1052760;28;665;-66
2023/01/03 00:23:30;;;;;;;;;;;;;;;13.54;76.96;102209.03;1057713;28;1058;-66
2023/01/03 00:24:21;;;;;;;;;;;;;;;13.55;76.62;102216.09;1055995;28;876;-66
2023/01/03 00:25:11;;;;;;;;;;;;;;;13.55;76.67;102216.09;1053290;28;650;-66
2023/01/03 00:26:02;;;;;;;;;;;;;;;13.53;76.72;102218.00;1052638;28;1993;-66
2023/01/03 00:26:52;;;;;;;;;;;;;;;13.54;76.68;102217.06;1054009;28;693;-66
2023/01/03 00:27:43;;;;;;;;;;;;;;;13.57;76.14;102213.34;1052688;28;689;-66
2023/01/03 00:28:33;;;;;;;;;;;;;;;13.57;76.77;102215.16;1054872;28;1399;-66
2023/01/03 00:29:23;;;;;;;;;;;;;;;13.53;76.33;102220.69;1057095;28;677;-66
2023/01/03 00:30:14;;;;;;;;;;;;;;;13.53;77.05;102218.00;1056159;28;1056;-66
2023/01/03 00:31:04;;;;;;;;;;;;;;;13.53;76.98;102220.69;1056096;28;670;-66
2023/01/03 00:31:55;;;;;;;;;;;;;;;13.50;76.72;102209.25;1056189;28;1165;-66
2023/01/03 00:32:45;;;;;;;;;;;;;;;13.50;76.64;102215.50;1053626;28;693;-66
2023/01/03 00:33:35;;;;;;;;;;;;;;;13.47;76.75;102210.28;1052200;28;1099;-66
2023/01/03 00:34:26;;;;;;;;;;;;;;;13.49;76.99;102208.41;1056422;28;722;-66
2023/01/03 00:35:16;;;;;;;;;;;;;;;13.49;76.92;102215.56;1056108;28;1194;-66
2023/01/03 00:36:07;;;;;;;;;;;;;;;13.50;76.20;102207.44;1055709;28;717;-66
2023/01/03 00:36:57;;;;;;;;;;;;;;;13.50;76.25;102215.50;1053607;28;1499;-66
2023/01/03 00:37:48;;;;;;;;;;;;;;;13.52;76.30;102212.72;1056156;28;1193;-66
2023/01/03 00:38:38;;;;;;;;;;;;;;;13.53;76.79;102218.00;1056245;28;672;-66
2023/01/03 00:39:28;;;;;;;;;;;;;;;13.54;76.42;102218.88;1052738;28;697;-65
2023/01/03 00:40:19;;;;;;;;;;;;;;;13.51;76.74;102219.03;1056547;28;720;-65
2023/01/03 00:41:09;;;;;;;;;;;;;;;13.53;76.70;102215.31;1056802;28;685;-66
2023/01/03 00:42:00;;;;;;;;;;;;;;;13.52;76.17;102215.41;1052816;28;800;-66
2023/01/03 00:43:59;;;;;;;;;;;;;;;13.50;76.13;102215.50;1052300;28;753;-66
2023/01/03 00:44:49;;;;;;;;;;;;;;;13.51;76.14;102216.34;1055622;28;638;-67
2023/01/03 00:45:40;;;;;;;;;;;;;;;13.50;76.17;102218.16;1057505;28;656;-66
2023/01/03 00:46:30;;;;;;;;;;;;;;;13.52;76.19;102224.31;1051829;28;1898;-66
2023/01/03 00:47:21;;;;;;;;;;;;;;;13.52;76.04;102218.09;1052736;28;654;-66
2023/01/03 00:48:11;;;;;;;;;;;;;;;13.50;76.13;102218.16;1055880;28;1174;-66
2023/01/03 00:49:02;;;;;;;;;;;;;;;13.50;76.66;102212.81;1055638;28;682;-66
2023/01/03 00:49:52;;;;;;;;;;;;;;;13.50;76.69;102219.97;1056253;28;1213;-66
2023/01/03 00:50:43;;;;;;;;;;;;;;;13.50;76.92;102218.16;1057358;28;739;-66
2023/01/03 00:51:33;;;;;;;;;;;;;;;13.52;76.65;102218.94;1056259;28;677;-66
2023/01/03 00:52:23;;;;;;;;;;;;;;;13.53;76.24;102228.72;1061350;27;660;-67
2023/01/03 00:53:14;;;;;;;;;;;;;;;13.50;76.14;102222.66;1060635;27;1256;-66
2023/01/03 00:54:04;;;;;;;;;;;;;;;13.49;76.51;102223.59;1054000;28;775;-66
2023/01/03 00:54:55;;;;;;;;;;;;;;;13.47;76.19;102223.69;1056196;28;657;-66
2023/01/03 00:55:45;;;;;;;;;;;;;;;13.48;76.92;102225.41;1055615;28;1079;-66
2023/01/03 00:56:36;;;;;;;;;;;;;;;13.50;76.30;102225.34;1055526;28;690;-66
2023/01/03 00:57:26;;;;;;;;;;;;;;;13.49;76.33;102227.16;1053260;28;720;-67
2023/01/03 00:58:16;;;;;;;;;;;;;;;13.51;76.23;102227.06;1054953;28;1476;-66
2023/01/03 00:59:07;;;;;;;;;;;;;;;13.51;76.67;102229.75;1052544;28;853;-66
2023/01/03 00:59:57;;;;;;;;;;;;;;;13.52;76.73;102231.47;1053042;28;1039;-66
2023/01/03 01:00:48;;;;;;;;;;;;;;;13.49;76.57;102240.53;1056074;28;1162;-66
2023/01/03 01:01:38;;;;;;;;;;;;;;;13.50;76.28;102231.56;1055936;28;709;-66
2023/01/03 01:02:29;;;;;;;;;;;;;;;13.52;76.24;102236.84;1056080;28;1126;-65
2023/01/03 01:03:19;;;;;;;;;;;;;;;13.53;76.59;102235.88;1057403;28;704;-66
2023/01/03 01:04:09;;;;;;;;;;;;;;;13.52;76.19;102240.38;1051901;28;629;-66
2023/01/03 01:05:00;;;;;;;;;;;;;;;13.50;76.14;102239.59;1054251;28;980;-66
2023/01/03 01:05:50;;;;;;;;;;;;;;;13.49;76.19;102237.84;1057384;28;722;-66
2023/01/03 01:06:41;;;;;;;;;;;;;;;13.49;76.76;102248.56;1055944;28;681;-66
2023/01/03 01:07:31;;;;;;;;;;;;;;;13.48;76.62;102243.28;1056223;28;1130;-66
2023/01/03 01:08:22;;;;;;;;;;;;;;;13.47;76.96;102245.09;1057312;28;1086;-66
2023/01/03 01:09:12;;;;;;;;;;;;;;;13.47;76.19;102247.78;1057078;28;559;-66
2023/01/03 01:10:03;;;;;;;;;;;;;;;13.48;76.63;102246.84;1056644;28;1170;-66
2023/01/03 01:11:02;;;;;;;;;;;;;;;13.46;76.74;102246.06;1056415;28;792;-66
2023/01/03 01:11:53;;;;;;;;;;;;;;;13.48;76.18;102249.50;1052532;28;661;-66
2023/01/03 01:12:43;;;;;;;;;;;;;;;13.46;76.15;102253.22;1052950;28;732;-65
2023/01/03 01:13:33;;;;;;;;;;;;;;;13.46;76.39;102245.19;1052443;28;696;-66
2023/01/03 01:14:24;;;;;;;;;;;;;;;13.46;76.98;102259.44;1054374;28;1084;-65
2023/01/03 01:15:14;;;;;;;;;;;;;;;13.45;76.24;102252.34;1052595;28;693;-66
2023/01/03 01:16:05;;;;;;;;;;;;;;;13.45;76.62;102257.72;1055867;28;1115;-66
2023/01/03 01:16:55;;;;;;;;;;;;;;;13.46;76.25;102255.91;1056430;28;662;-66
2023/01/03 01:17:46;;;;;;;;;;;;;;;13.45;76.25;102252.34;1059771;27;810;-66
2023/01/03 01:18:36;;;;;;;;;;;;;;;13.44;76.72;102249.75;1060626;27;1106;-66
2023/01/03 01:19:26;;;;;;;;;;;;;;;13.42;76.94;102254.38;1056091;28;698;-66
2023/01/03 01:20:17;;;;;;;;;;;;;;;13.41;76.78;102250.81;1056015;28;1150;-66
2023/01/03 01:21:07;;;;;;;;;;;;;;;13.41;76.27;102250.81;1057447;28;689;-66
2023/01/03 01:21:58;;;;;;;;;;;;;;;13.42;76.63;102252.56;1052501;28;701;-66
2023/01/03 01:22:48;;;;;;;;;;;;;;;13.43;76.33;102254.28;1055635;28;1079;-66
2023/01/03 01:23:38;;;;;;;;;;;;;;;13.43;76.07;102251.59;1055321;28;646;-66
2023/01/03 01:24:29;;;;;;;;;;;;;;;13.43;76.36;102243.56;1051783;28;658;-66
2023/01/03 01:25:19;;;;;;;;;;;;;;;13.42;76.79;102249.88;1056237;28;1127;-66
2023/01/03 01:26:10;;;;;;;;;;;;;;;13.42;76.43;102255.22;1052999;28;1910;-66
2023/01/03 01:27:00;;;;;;;;;;;;;;;13.42;76.27;102254.38;1055701;28;633;-66
2023/01/03 01:27:51;;;;;;;;;;;;;;;13.43;76.33;102254.28;1053685;28;622;-66
2023/01/03 01:28:41;;;;;;;;;;;;;;;13.42;76.67;102249.88;1055183;28;1550;-66
2023/01/03 01:29:32;;;;;;;;;;;;;;;13.42;76.57;102249.88;1055761;28;1110;-66
2023/01/03 01:30:22;;;;;;;;;;;;;;;13.43;76.60;102248.94;1057327;28;788;-66
2023/01/03 01:31:12;;;;;;;;;;;;;;;13.44;76.65;102250.63;1055787;28;1193;-66
2023/01/03 01:32:03;;;;;;;;;;;;;;;13.44;76.48;102249.75;1055447;28;705;-66
2023/01/03 01:32:53;;;;;;;;;;;;;;;13.43;76.48;102253.41;1056081;28;1210;-66
2023/01/03 01:33:44;;;;;;;;;;;;;;;13.41;76.92;102248.16;1055502;28;670;-66
2023/01/03 01:34:34;;;;;;;;;;;;;;;13.39;76.76;102247.34;1055969;28;1125;-66
2023/01/03 01:35:25;;;;;;;;;;;;;;;13.40;76.43;102249.09;1056681;28;704;-66
2023/01/03 01:36:15;;;;;;;;;;;;;;;13.41;76.48;102245.47;1056217;28;1222;-66
2023/01/03 01:37:06;;;;;;;;;;;;;;;13.40;76.81;102243.72;1056855;28;1453;-66
2023/01/03 01:37:56;;;;;;;;;;;;;;;13.39;77.06;102252.72;1055963;28;654;-66
2023/01/03 01:38:47;;;;;;;;;;;;;;;13.39;76.42;102251.84;1055260;28;1011;-67
2023/01/03 01:39:37;;;;;;;;;;;;;;;13.42;76.92;102249.00;1055805;28;665;-67
2023/01/03 01:40:28;;;;;;;;;;;;;;;13.43;76.71;102248.06;1055423;28;634;-66
2023/01/03 01:44:36;;;;;;;;;;;;;;;13.43;75.94;102248.94;1055633;28;736;-66
2023/01/03 01:44:54;;;;;;;;;;;;;;;13.42;76.79;102257.91;1047819;28;774;-66
2023/01/03 01:45:45;;;;;;;;;;;;;;;13.43;75.98;102253.41;1051920;28;638;-66
2023/01/03 01:46:35;;;;;;;;;;;;;;;13.43;76.64;102251.59;1054674;28;729;-66
2023/01/03 01:47:26;;;;;;;;;;;;;;;13.43;76.44;102254.28;1056393;28;1143;-66
2023/01/03 01:48:16;;;;;;;;;;;;;;;13.42;75.90;102257.03;1055686;28;682;-66
2023/01/03 01:49:07;;;;;;;;;;;;;;;13.43;76.28;102254.28;1057138;28;741;-66
2023/01/03 01:49:57;;;;;;;;;;;;;;;13.44;76.58;102255.97;1056077;28;768;-66
2023/01/03 01:50:47;;;;;;;;;;;;;;;13.43;76.22;102242.72;1057450;28;692;-66
2023/01/03 01:51:38;;;;;;;;;;;;;;;13.43;75.90;102258.78;1059665;28;956;-66
2023/01/03 01:52:28;;;;;;;;;;;;;;;13.40;76.15;102253.59;1052488;28;654;-66
2023/01/03 01:53:19;;;;;;;;;;;;;;;13.39;76.81;102258.06;1049244;28;1063;-66
2023/01/03 01:54:09;;;;;;;;;;;;;;;13.39;76.52;102252.72;1057745;28;751;-66
2023/01/03 01:55:00;;;;;;;;;;;;;;;13.40;76.54;102254.44;1052958;28;1098;-66
2023/01/03 01:55:50;;;;;;;;;;;;;;;13.38;76.66;102256.34;1055490;28;674;-66
2023/01/03 01:56:40;;;;;;;;;;;;;;;13.38;76.53;102256.34;1054618;28;1015;-66
2023/01/03 01:57:31;;;;;;;;;;;;;;;13.38;76.21;102256.34;1055429;28;717;-66
2023/01/03 01:58:21;;;;;;;;;;;;;;;13.38;76.51;102256.34;1055391;28;1500;-66
2023/01/03 01:59:12;;;;;;;;;;;;;;;13.38;76.62;102259.00;1055428;28;697;-66
2023/01/03 02:00:02;;;;;;;;;;;;;;;13.38;75.96;102256.34;1055348;28;1324;-66
2023/01/03 02:00:53;;;;;;;;;;;;;;;13.38;76.98;102261.69;1051740;28;682;-66
2023/01/03 02:01:43;;;;;;;;;;;;;;;13.39;76.60;102258.06;1056068;28;1179;-66
2023/01/03 02:02:33;;;;;;;;;;;;;;;13.38;76.19;102253.66;1056249;28;751;-66
2023/01/03 02:03:24;;;;;;;;;;;;;;;13.40;76.71;102261.63;1055776;28;1221;-66
2023/01/03 02:04:14;;;;;;;;;;;;;;;13.41;76.80;102260.66;1055731;28;717;-66
2023/01/03 02:05:05;;;;;;;;;;;;;;;13.42;76.85;102257.91;1055809;28;1197;-66
2023/01/03 02:05:56;;;;;;;;;;;;;;;13.42;76.67;102260.59;1056527;28;706;-66
2023/01/03 02:06:46;;;;;;;;;;;;;;;13.41;76.17;102258.84;1051981;28;784;-67
2023/01/03 02:07:37;;;;;;;;;;;;;;;13.40;76.96;102259.81;1052148;28;789;-66
2023/01/03 02:08:27;;;;;;;;;;;;;;;13.39;76.57;102258.06;1055933;28;1112;-66
2023/01/03 02:09:17;;;;;;;;;;;;;;;13.40;76.40;102257.13;1052956;28;673;-66
2023/01/03 02:10:09;;;;;;;;;;;;;;;13.39;76.57;102263.44;1055483;28;684;-66
2023/01/03 02:10:59;;;;;;;;;;;;;;;13.40;76.33;102266.97;1053032;28;1047;-66
2023/01/03 02:11:50;;;;;;;;;;;;;;;13.39;77.04;102267.91;1055424;28;745;-66
2023/01/03 02:13:49;;;;;;;;;;;;;;;13.39;76.61;102268.78;1055136;28;642;-66
2023/01/03 02:14:40;;;;;;;;;;;;;;;13.38;76.68;102272.41;1055872;28;1132;-66
2023/01/03 02:15:30;;;;;;;;;;;;;;;13.41;76.79;102274.06;1056195;28;648;-66
2023/01/03 02:16:21;;;;;;;;;;;;;;;13.39;76.90;102268.78;1055864;28;624;-67
2023/01/03 02:17:11;;;;;;;;;;;;;;;13.39;76.46;102282.16;1051912;28;741;-67
2023/01/03 02:18:02;;;;;;;;;;;;;;;13.39;76.08;102278.63;1051643;28;720;-67
2023/01/03 02:18:52;;;;;;;;;;;;;;;13.38;76.63;102275.09;1055743;28;1153;-67
2023/01/03 02:19:42;;;;;;;;;;;;;;;13.38;76.83;102277.75;1055343;28;724;-66
2023/01/03 02:20:33;;;;;;;;;;;;;;;13.36;76.64;102273.44;1051905;28;693;-67
2023/01/03 02:21:23;;;;;;;;;;;;;;;13.37;76.78;102270.66;1052693;28;744;-66
2023/01/03 02:22:14;;;;;;;;;;;;;;;13.37;76.10;102273.34;1053089;28;746;-67
2023/01/03 02:23:04;;;;;;;;;;;;;;;13.37;76.16;102278.72;1053361;28;669;-66
2023/01/03 02:23:55;;;;;;;;;;;;;;;13.37;76.39;102276.03;1055932;28;1122;-66
2023/01/03 02:24:45;;;;;;;;;;;;;;;13.37;76.13;102281.38;1056493;28;666;-67
2023/01/03 02:25:36;;;;;;;;;;;;;;;13.37;76.33;102273.34;1055627;28;670;-66
2023/01/03 02:26:26;;;;;;;;;;;;;;;13.38;76.75;102277.75;1056031;28;1976;-67
2023/01/03 02:27:16;;;;;;;;;;;;;;;13.37;76.38;102278.72;1057072;28;653;-67
2023/01/03 02:28:07;;;;;;;;;;;;;;;13.35;76.11;102274.38;1056075;28;1411;-67
2023/01/03 02:28:57;;;;;;;;;;;;;;;13.35;76.16;102271.69;1052855;28;630;-67
2023/01/03 02:29:48;;;;;;;;;;;;;;;13.36;75.94;102274.28;1055959;28;1199;-67
2023/01/03 02:30:38;;;;;;;;;;;;;;;13.37;76.64;102277.84;1056794;28;696;-66
2023/01/03 02:31:28;;;;;;;;;;;;;;;13.37;76.56;102277.84;1057094;28;696;-67
2023/01/03 02:32:19;;;;;;;;;;;;;;;13.36;76.01;102276.97;1056937;28;635;-67
2023/01/03 02:33:09;;;;;;;;;;;;;;;13.34;76.56;102276.19;1052623;28;621;-66
2023/01/03 02:34:00;;;;;;;;;;;;;;;13.34;76.09;102265.47;1054068;28;1137;-66
2023/01/03 02:34:50;;;;;;;;;;;;;;;13.33;76.22;102279.81;1056399;28;754;-66
2023/01/03 02:35:41;;;;;;;;;;;;;;;13.33;76.50;102265.56;1062366;27;1094;-66
2023/01/03 02:36:32;;;;;;;;;;;;;;;13.33;76.20;102266.41;1057088;28;649;-66
2023/01/03 02:37:22;;;;;;;;;;;;;;;13.35;76.72;102267.22;1053857;28;687;-67
2023/01/03 02:38:12;;;;;;;;;;;;;;;13.36;76.30;102268.06;1053763;28;1138;-66
2023/01/03 02:39:03;;;;;;;;;;;;;;;13.35;76.27;102261.00;1053111;28;692;-66
2023/01/03 02:39:53;;;;;;;;;;;;;;;13.33;76.72;102263.75;1053317;28;689;-66
2023/01/03 02:40:44;;;;;;;;;;;;;;;13.34;76.08;102268.16;1053665;28;1068;-66
2023/01/03 02:41:34;;;;;;;;;;;;;;;13.35;76.65;102269.03;1053820;28;664;-66
2023/01/03 02:43:34;;;;;;;;;;;;;;;13.35;76.41;102271.69;1056590;28;1059;-66
2023/01/03 02:44:24;;;;;;;;;;;;;;;13.36;76.63;102273.44;1056304;28;699;-66
2023/01/03 02:45:14;;;;;;;;;;;;;;;13.34;76.14;102270.84;1056428;28;1163;-66
2023/01/03 02:46:05;;;;;;;;;;;;;;;13.35;76.17;102267.22;1054373;28;649;-66
2023/01/03 02:46:55;;;;;;;;;;;;;;;13.33;76.18;102258.38;1054858;28;1147;-66
2023/01/03 02:47:46;;;;;;;;;;;;;;;13.34;76.34;102268.16;1053730;28;649;-66
2023/01/03 02:48:36;;;;;;;;;;;;;;;13.37;76.09;102272.47;1052586;28;731;-66
2023/01/03 02:49:27;;;;;;;;;;;;;;;13.36;76.01;102268.94;1052358;28;681;-66
2023/01/03 02:50:17;;;;;;;;;;;;;;;13.36;76.11;102268.94;1052614;28;661;-66
2023/01/03 02:51:08;;;;;;;;;;;;;;;13.37;76.20;102275.16;1053330;28;665;-66
2023/01/03 02:51:58;;;;;;;;;;;;;;;13.37;76.48;102270.66;1053873;28;694;-67
2023/01/03 02:52:48;;;;;;;;;;;;;;;13.37;76.21;102273.34;1053345;28;740;-65
2023/01/03 02:53:39;;;;;;;;;;;;;;;13.37;76.40;102269.81;1054880;28;706;-67
2023/01/03 02:54:29;;;;;;;;;;;;;;;13.37;76.59;102276.03;1052063;28;599;-67
2023/01/03 02:55:20;;;;;;;;;;;;;;;13.35;76.08;102272.56;1056575;28;1111;-65
2023/01/03 02:56:10;;;;;;;;;;;;;;;13.34;76.71;102276.19;1056678;28;693;-67
2023/01/03 02:57:01;;;;;;;;;;;;;;;13.36;76.31;102268.94;1052282;28;670;-65
2023/01/03 02:57:51;;;;;;;;;;;;;;;13.36;76.72;102273.44;1052446;28;679;-67
2023/01/03 02:58:41;;;;;;;;;;;;;;;13.35;76.08;102274.38;1052780;28;712;-67
2023/01/03 02:59:32;;;;;;;;;;;;;;;13.36;76.01;102279.66;1053602;27;1136;-68
2023/01/03 03:00:22;;;;;;;;;;;;;;;13.34;76.35;102268.16;1053981;28;1358;-68
2023/01/03 03:01:13;;;;;;;;;;;;;;;13.35;76.42;102271.69;1052930;28;1560;-68
2023/01/03 03:02:03;;;;;;;;;;;;;;;13.34;76.73;102272.63;1052162;28;1786;-68
2023/01/03 03:02:54;;;;;;;;;;;;;;;13.32;76.79;102270.03;1055014;28;1095;-65
2023/01/03 03:03:44;;;;;;;;;;;;;;;13.32;76.50;102262.00;1053685;28;720;-65
2023/01/03 03:04:34;;;;;;;;;;;;;;;13.31;76.21;102268.31;1054162;28;1170;-68
2023/01/03 03:05:25;;;;;;;;;;;;;;;13.30;76.70;102266.56;1053661;28;638;-65
2023/01/03 03:06:15;;;;;;;;;;;;;;;13.31;76.17;102265.63;1058484;27;1939;-67
2023/01/03 03:07:06;;;;;;;;;;;;;;;13.31;76.14;102260.28;1054155;28;651;-67
2023/01/03 03:07:56;;;;;;;;;;;;;;;13.30;76.53;102266.56;1052334;28;1155;-67
2023/01/03 03:08:47;;;;;;;;;;;;;;;13.31;76.57;102259.41;1054247;28;633;-67
2023/01/03 03:13:11;;;;;;;;;;;;;;;13.31;76.13;102265.63;1053101;28;669;-67
2023/01/03 03:13:12;;;;;;;;;;;;;;;13.31;76.46;102271.00;1053087;28;1646;-67
2023/01/03 03:14:02;;;;;;;;;;;;;;;13.30;75.98;102257.69;1053255;28;678;-67
2023/01/03 03:14:53;;;;;;;;;;;;;;;13.30;76.08;102261.22;1053836;28;1083;-67
2023/01/03 03:15:43;;;;;;;;;;;;;;;13.32;76.53;102259.34;1055974;28;705;-67
2023/01/03 03:16:46;;;;;;;;;;;;;;;13.29;76.42;102262.16;1053243;28;685;-67
2023/01/03 03:17:36;;;;;;;;;;;;;;;13.28;76.00;102265.78;1057368;28;700;-67
2023/01/03 03:18:27;;;;;;;;;;;;;;;13.29;76.56;102263.97;1057863;28;716;-67
2023/01/03 03:24:48;;;;;;;;;;;;;;;13.28;76.34;102255.09;1057452;28;1304;-67
2023/01/03 03:25:04;;;;;;;;;;;;;;;13.28;76.11;102260.44;1052395;28;694;-67
2023/01/03 03:25:55;;;;;;;;;;;;;;;13.27;76.37;102256.03;1054963;28;735;-67
2023/01/03 03:26:45;;;;;;;;;;;;;;;13.28;76.72;102259.56;1056126;28;1051;-67
2023/01/03 03:28:45;;;;;;;;;;;;;;;13.28;76.46;102251.53;1056197;28;678;-67
2023/01/03 03:29:35;;;;;;;;;;;;;;;13.27;76.67;102256.03;1055811;28;1146;-67
2023/01/03 03:30:26;;;;;;;;;;;;;;;13.26;75.95;102256.09;1056836;28;731;-65
2023/01/03 03:31:16;;;;;;;;;;;;;;;13.24;76.20;102260.72;1055146;28;1134;-68
2023/01/03 03:32:06;;;;;;;;;;;;;;;13.23;76.75;102250.94;1055965;28;693;-65
2023/01/03 03:32:57;;;;;;;;;;;;;;;13.20;76.37;102251.97;1056017;28;1154;-67
2023/01/03 03:33:47;;;;;;;;;;;;;;;13.22;76.64;102249.22;1055855;28;737;-67
2023/01/03 03:34:38;;;;;;;;;;;;;;;13.20;76.67;102257.31;1052572;28;720;-67
2023/01/03 03:35:28;;;;;;;;;;;;;;;13.22;76.59;102247.41;1050810;28;1123;-67
2023/01/03 03:36:18;;;;;;;;;;;;;;;13.22;76.04;102254.56;1053125;28;696;-67
2023/01/03 03:37:09;;;;;;;;;;;;;;;13.22;76.26;102246.53;1054682;28;1079;-67
2023/01/03 03:37:59;;;;;;;;;;;;;;;13.23;76.47;102246.47;1055528;28;738;-67
2023/01/03 03:38:50;;;;;;;;;;;;;;;13.19;76.51;102244.88;1055576;28;685;-67
2023/01/03 03:45:26;;;;;;;;;;;;;;;13.20;76.33;102247.47;1054274;28;1123;-66
2023/01/03 03:46:20;;;;;;;;;;;;;;;13.20;76.57;102249.28;1055596;28;1963;-66
2023/01/03 03:47:10;;;;;;;;;;;;;;;13.19;76.16;102239.53;1055880;28;1162;-66
2023/01/03 03:48:01;;;;;;;;;;;;;;;13.19;75.97;102253.78;1056069;28;1253;-66
2023/01/03 03:50:00;;;;;;;;;;;;;;;13.18;76.58;102245.84;1055478;28;1218;-66
2023/01/03 03:50:51;;;;;;;;;;;;;;;13.17;76.13;102250.31;1054744;28;1143;-66
2023/01/03 03:51:41;;;;;;;;;;;;;;;13.17;75.78;102244.09;1056745;28;1193;-66
2023/01/03 03:52:32;;;;;;;;;;;;;;;13.18;76.15;102245.84;1054584;28;1134;-66
2023/01/03 03:53:22;;;;;;;;;;;;;;;13.18;76.50;102245.84;1056722;28;1159;-66
2023/01/03 03:54:12;;;;;;;;;;;;;;;13.18;75.74;102245.84;1056068;28;1080;-66
2023/01/03 03:55:03;;;;;;;;;;;;;;;13.17;76.02;102247.66;1053202;28;1191;-66
2023/01/03 03:55:53;;;;;;;;;;;;;;;13.16;76.54;102248.59;1056121;28;1048;-66
2023/01/03 03:56:44;;;;;;;;;;;;;;;13.16;76.54;102245.91;1056429;28;1226;-66
2023/01/03 03:57:34;;;;;;;;;;;;;;;13.16;76.41;102251.25;1054088;28;1110;-66
2023/01/03 03:58:24;;;;;;;;;;;;;;;13.16;76.58;102248.59;1055024;28;1333;-66
2023/01/03 03:59:15;;;;;;;;;;;;;;;13.16;76.12;102245.91;1055302;28;1142;-66
2023/01/03 04:00:05;;;;;;;;;;;;;;;13.17;76.06;102252.13;1056660;28;1285;-65
2023/01/03 04:00:56;;;;;;;;;;;;;;;13.17;76.06;102253.00;1055905;28;1210;-65
2023/01/03 04:01:46;;;;;;;;;;;;;;;13.18;75.91;102243.16;1055042;28;1135;-66
2023/01/03 04:02:37;;;;;;;;;;;;;;;13.17;76.37;102246.78;1056631;28;1166;-66
2023/01/03 04:03:27;;;;;;;;;;;;;;;13.17;76.31;102252.13;1054322;28;1143;-65
2023/01/03 04:04:17;;;;;;;;;;;;;;;13.17;76.14;102257.47;1055732;28;1146;-65
2023/01/03 04:05:08;;;;;;;;;;;;;;;13.17;75.75;102253.00;1054278;28;1084;-65
2023/01/03 04:05:58;;;;;;;;;;;;;;;13.15;75.91;102260.25;1056466;28;1028;-65
2023/01/03 04:06:49;;;;;;;;;;;;;;;13.17;76.06;102263.69;1052000;28;662;-66
2023/01/03 04:07:39;;;;;;;;;;;;;;;13.14;75.87;102261.16;1057602;28;1185;-66
2023/01/03 04:08:30;;;;;;;;;;;;;;;13.16;76.16;102261.09;1059672;28;983;-65
2023/01/03 04:09:20;;;;;;;;;;;;;;;13.16;76.33;102261.97;1057016;28;1079;-65
2023/01/03 04:10:11;;;;;;;;;;;;;;;13.16;76.16;102261.97;1056797;28;1034;-65
2023/01/03 04:11:04;;;;;;;;;;;;;;;13.18;76.01;102270.78;1054937;28;1127;-65
2023/01/03 04:11:54;;;;;;;;;;;;;;;13.17;76.40;102265.50;1057821;28;1083;-65
2023/01/03 04:12:45;;;;;;;;;;;;;;;13.18;75.99;102267.25;1052722;28;1163;-65
2023/01/03 04:13:35;;;;;;;;;;;;;;;13.16;76.79;102264.66;1057922;28;1107;-65
2023/01/03 04:14:26;;;;;;;;;;;;;;;13.19;75.89;102266.31;1014829;28;1051302;-65
2023/01/03 04:15:16;;;;;;;;;;;;;;;13.19;75.90;102266.31;1053831;28;1182;-65
2023/01/03 04:16:07;;;;;;;;;;;;;;;13.17;75.90;102262.84;1056582;28;1128;-65
2023/01/03 04:16:57;;;;;;;;;;;;;;;13.17;76.62;102265.50;1055413;28;1038;-65
2023/01/03 04:17:47;;;;;;;;;;;;;;;13.18;76.05;102272.59;1056177;28;1145;-65
2023/01/03 04:18:38;;;;;;;;;;;;;;;13.17;76.32;102273.53;1054004;28;980;-65
2023/01/03 04:19:28;;;;;;;;;;;;;;;13.18;75.99;102275.28;1056115;28;1205;-65
2023/01/03 04:20:19;;;;;;;;;;;;;;;13.17;76.21;102270.88;1055206;28;1056;-65
2023/01/03 04:21:09;;;;;;;;;;;;;;;13.15;76.17;102270.06;1055824;28;1387;-65
2023/01/03 04:22:00;;;;;;;;;;;;;;;13.15;76.45;102264.72;1054330;28;935;-65
2023/01/03 04:22:50;;;;;;;;;;;;;;;13.14;76.64;102268.31;1056025;28;1115;-64
2023/01/03 04:23:41;;;;;;;;;;;;;;;13.14;76.33;102265.63;1056006;28;1062;-65
2023/01/03 04:24:31;;;;;;;;;;;;;;;13.14;76.36;102263.81;1053500;28;1158;-65
2023/01/03 04:25:21;;;;;;;;;;;;;;;13.14;76.12;102262.97;1056380;28;1045;-64
2023/01/03 04:26:12;;;;;;;;;;;;;;;13.14;76.21;102262.97;1056805;28;1264;-65
2023/01/03 04:27:02;;;;;;;;;;;;;;;13.15;76.19;102262.06;1054848;28;1066;-65
2023/01/03 04:27:53;;;;;;;;;;;;;;;13.16;75.96;102266.47;1056883;28;1133;-64
2023/01/03 04:28:43;;;;;;;;;;;;;;;13.15;76.66;102267.41;1054910;28;1090;-65
2023/01/03 04:29:33;;;;;;;;;;;;;;;13.14;76.00;102261.16;1053498;28;1105;-65
2023/01/03 04:30:24;;;;;;;;;;;;;;;13.13;76.41;102266.59;1055607;28;1053;-65
2023/01/03 04:31:14;;;;;;;;;;;;;;;13.16;76.91;102266.47;1054895;28;1151;-65
2023/01/03 04:32:05;;;;;;;;;;;;;;;13.16;75.93;102266.47;1056140;28;1069;-65
2023/01/03 04:32:56;;;;;;;;;;;;;;;13.15;75.87;102262.91;1054390;28;991;-65
2023/01/03 04:33:46;;;;;;;;;;;;;;;13.16;76.39;102264.66;1055851;28;1328;-65
2023/01/03 04:34:36;;;;;;;;;;;;;;;13.18;75.91;102261.91;1052807;28;1049;-64
2023/01/03 04:35:27;;;;;;;;;;;;;;;13.16;76.35;102263.78;1052200;28;1140;-65
2023/01/03 04:36:17;;;;;;;;;;;;;;;13.16;76.19;102267.31;1056764;28;1010;-65
2023/01/03 04:37:08;;;;;;;;;;;;;;;13.16;76.10;102270.00;1055890;28;1062;-65
2023/01/03 04:37:58;;;;;;;;;;;;;;;13.16;76.60;102261.09;1057327;28;982;-65
2023/01/03 04:38:49;;;;;;;;;;;;;;;13.16;76.27;102266.47;1056215;28;1102;-65
2023/01/03 04:39:39;;;;;;;;;;;;;;;13.16;76.16;102261.97;1056082;28;927;-65
2023/01/03 04:40:29;;;;;;;;;;;;;;;13.16;76.00;102266.47;1051913;28;1165;-65
2023/01/03 04:41:20;;;;;;;;;;;;;;;13.16;76.37;102266.47;1052295;28;940;-65
2023/01/03 04:44:29;;;;;;;;;;;;;;;13.16;76.57;102264.66;1055006;28;1084;-65
2023/01/03 04:45:19;;;;;;;;;;;;;;;13.16;76.11;102266.47;1055103;28;1070;-65
2023/01/03 04:46:10;;;;;;;;;;;;;;;13.16;76.40;102269.13;1056161;28;1152;-65
2023/01/03 04:47:00;;;;;;;;;;;;;;;13.15;76.12;102270.94;1055125;28;1007;-65
2023/01/03 04:47:51;;;;;;;;;;;;;;;13.15;76.51;102270.06;1054501;28;1174;-65
2023/01/03 04:48:41;;;;;;;;;;;;;;;13.16;76.30;102277.16;1055646;28;1046;-64
2023/01/03 04:49:32;;;;;;;;;;;;;;;13.15;76.23;102270.06;1056586;28;1113;-65
2023/01/03 04:50:22;;;;;;;;;;;;;;;13.17;76.68;102274.41;1055231;28;1062;-65